SAZB/BHI METAR and TAF weather

Enter ICAO airport designator
Station Type Date Time Source
SAZB METAR 2021/07/24 09:21 UTC NOAA

SAZB 240921Z 09006KT 2500 BR NSC M01/M01 Q1021


Station Type Date Time Source
SAZB Decoded METAR 2021/07/24 09:21 UTC NOAA

Bahia Blanca Aerodrome, Argentina (SAZB) 38-44S 062-10W 83M
Jul 24, 2021 - 05:21 AM EDT / 2021.07.24 0921 UTC
Wind: from the E (090 degrees) at 7 MPH (6 KT):0
Visibility: 1 mile(s):0
Weather: mist
Temperature: 30 F (-1 C)
Windchill: 23 F (-5 C):1
Dew Point: 30 F (-1 C)
Relative Humidity: 100%
Pressure (altimeter): 30.15 in. Hg (1021 hPa)
ob: SAZB 240921Z 09006KT 2500 BR NSC M01/M01 Q1021
cycle: 9

Station Type Date Time Source
SAZB TAF 2021/03/28 06:26 UTC NOAA

TAF SAZB 280500Z 2806/2906 09010KT CAVOK TX22/2818Z TN08/2810Z
BECMG 2807/2809 VRB03KT 5000 BR NSC
TEMPO 2809/2812 0800 FG NSC
BECMG 2812/1814 12005KT CAVOK

Example: see airport list